Hauptseite
METAR-TAF:

METAR-TAF

Flughäfen :

Flughafen Katowice

Kattowitz, Polen

Breite: 50-28-27N, Länge: 019-04-48E, Höhe: 284 m

Beobachtung

Neuester Wetterbericht von vor 12 Minuten, um 15:30 UTC
Wind 2 kt aus unterschiedlichen Richtungen
Temperatur 18°C
Luftfeuchtigkeit 42%
Luftdruck 1021 hPa
Sichtweite 10 km oder mehr
keine Wolken unter 1500 m und keine Kumulonimbus oder Gewitterwolken

METAR: EPKT 151530Z VRB02KT CAVOK 18/05 Q1021

Zeit: 17:42 (15:42 UTC)

Prognose

Neuester Wetterbericht von vor 4 Stunden und 12 Minuten, um 11:30 UTC
Gültige Prognose vom 15 um 12 UTC bis 16 um 12 UTC
Wind 8 kt aus Süd
Sichtweite 10 km oder mehr
keine Wolken unter 1500 m und keine Kumulonimbus oder Gewitterwolken

TAF: EPKT 151130Z 1512/1612 17008KT CAVOK

Wetterbeobachtungen und Prognosen von mehr als 4000 Flughäfen (METAR und TAF Bericht).

Die verfügbaren Stationen werden durch gelbe und rote Markierungen auf der Karte dargestellt.

Führen Sie die Maus auf sie, um den Namen der Station zu sehen.

Darauf klicken, um die Beobachtung von Wetterbeobachtungen und Prognosen zu sehen.

Um die Karte zu ändern : klicken Sie auf den grünen Tasten mit einem schwarzen Kreuz Zum Vergrößern, auf den grünen Button mit einem Gedankenstrich zu verkleinern, oder auf die grünen Pfeile für benachbarte Karten.


METAR-TAF: